createdAt,value
2018-07-13T00:00:47.636Z,4.27
2018-07-13T00:03:21.107Z,4.20
2018-07-13T00:05:54.613Z,4.83
2018-07-13T00:08:28.055Z,4.20
2018-07-13T00:11:01.564Z,4.53
2018-07-13T00:13:45.022Z,4.30
2018-07-13T00:16:18.490Z,4.60
2018-07-13T00:18:51.924Z,4.17
2018-07-13T00:21:25.404Z,5.10
2018-07-13T00:23:58.858Z,3.70
2018-07-13T00:26:32.365Z,4.43
2018-07-13T00:29:06.430Z,4.37
2018-07-13T00:31:41.139Z,5.47
2018-07-13T00:34:14.615Z,4.30
2018-07-13T00:36:48.099Z,5.43
2018-07-13T00:39:21.516Z,5.00
2018-07-13T00:41:55.000Z,5.20
2018-07-13T00:44:28.401Z,4.17
2018-07-13T00:47:01.917Z,5.03
2018-07-13T00:49:35.400Z,5.13
2018-07-13T00:52:08.877Z,4.67
2018-07-13T00:54:42.360Z,5.03
2018-07-13T00:57:15.798Z,5.07
2018-07-13T00:59:49.241Z,5.43
2018-07-13T01:02:22.738Z,5.30
2018-07-13T01:04:55.839Z,5.60
2018-07-13T01:07:29.305Z,4.73
2018-07-13T01:10:02.802Z,5.37
2018-07-13T01:12:36.242Z,4.90
2018-07-13T01:15:09.829Z,4.77
2018-07-13T01:17:43.336Z,4.60
2018-07-13T01:20:16.803Z,5.83
2018-07-13T01:22:50.230Z,5.10
2018-07-13T01:25:23.717Z,4.83
2018-07-13T01:27:57.178Z,5.20
2018-07-13T01:30:30.977Z,4.43
2018-07-13T01:33:04.780Z,5.00
2018-07-13T01:35:38.269Z,4.90
2018-07-13T01:38:11.717Z,4.90
2018-07-13T01:40:45.174Z,4.90
2018-07-13T01:43:18.619Z,5.00
2018-07-13T01:45:51.804Z,5.53
2018-07-13T01:48:25.232Z,5.10
2018-07-13T01:50:58.765Z,5.80
2018-07-13T01:53:32.269Z,4.57
2018-07-13T01:56:05.787Z,4.93
2018-07-13T01:58:39.270Z,5.20
2018-07-13T02:01:12.764Z,6.23
2018-07-13T02:03:46.302Z,5.63
2018-07-13T02:06:19.734Z,5.17
2018-07-13T02:08:53.389Z,4.90
2018-07-13T02:11:26.904Z,4.33
2018-07-13T02:14:00.360Z,4.80
2018-07-13T02:16:33.828Z,5.87
2018-07-13T02:19:07.983Z,4.63
2018-07-13T02:21:41.424Z,4.83
2018-07-13T02:24:14.913Z,5.20
2018-07-13T02:26:48.377Z,5.20
2018-07-13T02:29:21.850Z,4.57
2018-07-13T02:31:55.350Z,6.00
2018-07-13T02:34:28.820Z,4.90
2018-07-13T02:37:02.386Z,5.33
2018-07-13T02:39:35.928Z,5.17
2018-07-13T02:42:09.473Z,5.30
2018-07-13T02:44:42.934Z,5.60
2018-07-13T02:47:16.393Z,4.73
2018-07-13T02:49:49.519Z,5.33
2018-07-13T02:52:22.993Z,4.97
2018-07-13T02:54:56.492Z,5.87
2018-07-13T02:57:30.051Z,5.77
2018-07-13T03:00:03.603Z,4.67
2018-07-13T03:02:37.105Z,4.37
2018-07-13T03:05:10.633Z,5.43
2018-07-13T03:07:44.120Z,6.33
2018-07-13T03:10:17.595Z,5.23
2018-07-13T03:12:54.824Z,5.03
2018-07-13T03:15:28.831Z,5.03
2018-07-13T03:18:04.975Z,6.07
2018-07-13T03:20:43.971Z,4.80
2018-07-13T03:23:17.496Z,5.27
2018-07-13T03:25:51.049Z,6.37
2018-07-13T03:28:24.554Z,5.27
2018-07-13T03:30:58.051Z,5.00
2018-07-13T03:33:31.560Z,5.20
2018-07-13T03:36:05.038Z,5.80
2018-07-13T03:38:38.545Z,6.00
2018-07-13T03:41:12.255Z,5.83
2018-07-13T03:43:45.762Z,5.50
2018-07-13T03:46:19.251Z,4.73
2018-07-13T03:48:52.755Z,5.27
2018-07-13T03:51:26.300Z,5.30
2018-07-13T03:53:59.856Z,4.93
2018-07-13T03:56:33.340Z,5.70
2018-07-13T03:59:06.800Z,5.93
2018-07-13T04:01:40.303Z,4.63
2018-07-13T04:04:13.832Z,5.97
2018-07-13T04:06:47.394Z,5.30
2018-07-13T04:09:20.886Z,4.57
2018-07-13T04:11:54.366Z,6.57
2018-07-13T04:14:27.878Z,5.40
2018-07-13T04:17:01.381Z,5.27
2018-07-13T04:19:34.852Z,5.50
2018-07-13T04:22:08.495Z,7.10
2018-07-13T04:24:42.029Z,6.03
2018-07-13T04:27:15.823Z,6.27
2018-07-13T04:29:49.441Z,6.20
2018-07-13T04:32:22.992Z,5.77
2018-07-13T04:34:56.491Z,5.80
2018-07-13T04:37:30.009Z,5.43
2018-07-13T04:40:03.612Z,6.97
2018-07-13T04:42:37.099Z,6.43
2018-07-13T04:45:10.664Z,4.33
2018-07-13T04:47:44.161Z,5.57
2018-07-13T04:50:17.792Z,4.70
2018-07-13T04:52:51.361Z,4.83
2018-07-13T04:55:25.130Z,5.27
2018-07-13T04:57:58.652Z,5.10
2018-07-13T05:00:32.286Z,5.62
2018-07-13T05:03:05.883Z,5.90
2018-07-13T05:05:39.419Z,5.80
2018-07-13T05:08:13.019Z,5.53
2018-07-13T05:10:46.507Z,5.25
2018-07-13T05:13:20.004Z,5.12
2018-07-13T05:15:53.610Z,4.72
2018-07-13T05:18:27.135Z,4.50
2018-07-13T05:21:00.665Z,4.50
2018-07-13T05:23:34.305Z,4.60
2018-07-13T05:26:07.839Z,5.12
2018-07-13T05:28:41.405Z,4.80
2018-07-13T05:31:15.131Z,4.37
2018-07-13T05:33:48.743Z,4.12
2018-07-13T05:36:22.313Z,4.05
2018-07-13T05:38:55.891Z,4.03
2018-07-13T05:41:29.425Z,4.60
2018-07-13T05:44:02.971Z,4.05
2018-07-13T05:46:36.511Z,4.60
2018-07-13T05:49:10.164Z,4.10
2018-07-13T05:51:43.730Z,4.00
2018-07-13T05:54:17.315Z,4.28
2018-07-13T05:56:50.887Z,3.95
2018-07-13T05:59:24.489Z,4.47
2018-07-13T06:01:58.081Z,4.30
2018-07-13T06:04:31.682Z,4.35
2018-07-13T06:07:05.448Z,4.30
2018-07-13T06:09:39.663Z,3.80
2018-07-13T06:12:12.825Z,3.85
2018-07-13T06:14:46.306Z,4.25
2018-07-13T06:17:19.777Z,4.08
2018-07-13T06:19:53.240Z,3.77
2018-07-13T06:22:26.759Z,4.37
2018-07-13T06:25:00.224Z,4.15
2018-07-13T06:27:33.709Z,3.72
2018-07-13T06:30:07.185Z,4.95
2018-07-13T06:32:40.701Z,3.98
2018-07-13T06:35:14.259Z,4.33
2018-07-13T06:37:47.861Z,4.00
2018-07-13T06:40:21.339Z,4.08
2018-07-13T06:42:54.822Z,4.33
2018-07-13T06:45:27.992Z,4.37
2018-07-13T06:48:01.510Z,4.00
2018-07-13T06:50:35.426Z,4.60
2018-07-13T06:53:09.467Z,4.33
2018-07-13T06:55:42.941Z,3.90
2018-07-13T06:58:27.450Z,4.35
2018-07-13T07:01:06.961Z,4.15
2018-07-13T07:04:50.942Z,3.52
2018-07-13T07:07:26.088Z,4.42
2018-07-13T07:09:59.862Z,4.00
2018-07-13T07:12:54.793Z,3.92
2018-07-13T07:15:28.402Z,3.80
2018-07-13T07:18:01.873Z,4.00
2018-07-13T07:20:35.366Z,3.95
2018-07-13T07:23:08.855Z,3.65
2018-07-13T07:25:42.374Z,4.00
2018-07-13T07:28:15.898Z,3.77
2018-07-13T07:30:49.493Z,4.10
2018-07-13T07:33:23.234Z,3.67
2018-07-13T07:35:56.728Z,3.52
2018-07-13T07:38:30.276Z,3.70
2018-07-13T07:41:03.804Z,3.60
2018-07-13T07:43:37.314Z,3.72
2018-07-13T07:46:10.993Z,3.47
2018-07-13T07:48:44.476Z,3.52
2018-07-13T07:51:18.042Z,3.08
2018-07-13T07:53:51.529Z,3.62
2018-07-13T07:56:25.005Z,3.70
2018-07-13T07:58:58.475Z,3.35
2018-07-13T08:01:32.017Z,3.70
2018-07-13T08:04:05.551Z,3.33
2018-07-13T08:06:39.256Z,3.55
2018-07-13T08:09:12.679Z,3.37
2018-07-13T08:11:46.207Z,3.65
2018-07-13T08:14:19.871Z,3.20
2018-07-13T08:16:53.148Z,3.45
2018-07-13T08:19:26.602Z,3.67
2018-07-13T08:22:08.388Z,3.52
2018-07-13T08:24:41.997Z,3.33
2018-07-13T08:27:17.533Z,3.15
2018-07-13T08:29:53.121Z,3.25
2018-07-13T08:32:26.623Z,2.87
2018-07-13T08:35:00.043Z,3.15
2018-07-13T08:37:33.620Z,2.90
2018-07-13T08:40:07.120Z,3.10
2018-07-13T08:42:41.163Z,3.00
2018-07-13T08:45:14.662Z,2.90
2018-07-13T08:47:48.205Z,2.95
2018-07-13T08:50:21.794Z,2.87
2018-07-13T08:52:57.168Z,3.35
2018-07-13T08:55:30.779Z,3.20
2018-07-13T08:58:04.350Z,2.65
2018-07-13T09:00:38.019Z,3.12
2018-07-13T09:03:11.567Z,3.30
2018-07-13T09:05:45.151Z,3.12
2018-07-13T09:08:18.582Z,2.55
2018-07-13T09:10:52.242Z,2.62
2018-07-13T09:13:25.618Z,2.25
2018-07-13T09:15:59.114Z,2.67
2018-07-13T09:18:32.663Z,2.95
2018-07-13T09:21:06.250Z,3.60
2018-07-13T09:23:39.808Z,3.65
2018-07-13T09:26:13.341Z,3.60
2018-07-13T09:28:46.815Z,3.65
2018-07-13T09:31:20.380Z,3.87
2018-07-13T09:33:53.841Z,3.90
2018-07-13T09:36:27.394Z,3.83
2018-07-13T09:39:00.914Z,3.22
2018-07-13T09:41:34.429Z,3.83
2018-07-13T09:44:07.900Z,3.40
2018-07-13T09:46:41.449Z,3.10
2018-07-13T09:49:14.886Z,3.00
2018-07-13T09:51:48.455Z,3.10
2018-07-13T09:54:22.057Z,3.98
2018-07-13T09:56:55.525Z,3.47
2018-07-13T09:59:29.087Z,3.60
2018-07-13T10:02:02.665Z,3.52
2018-07-13T10:04:36.184Z,3.47
2018-07-13T10:07:09.974Z,2.90
2018-07-13T10:09:43.559Z,3.17
2018-07-13T10:12:17.093Z,3.05
2018-07-13T10:14:50.621Z,3.10
2018-07-13T10:17:24.178Z,3.30
2018-07-13T10:19:57.803Z,3.72
2018-07-13T10:22:31.780Z,3.58
2018-07-13T10:25:05.691Z,3.12
2018-07-13T10:27:39.474Z,3.30
2018-07-13T10:30:13.658Z,3.40
2018-07-13T10:32:47.210Z,3.17
2018-07-13T10:35:20.884Z,3.17
2018-07-13T10:37:54.413Z,3.17
2018-07-13T10:40:28.395Z,3.40
2018-07-13T10:43:01.965Z,3.95
2018-07-13T10:45:35.549Z,3.60
2018-07-13T10:48:09.105Z,3.55
2018-07-13T10:50:42.598Z,3.58
2018-07-13T10:53:16.121Z,3.50
2018-07-13T10:55:49.615Z,3.92
2018-07-13T10:58:23.114Z,3.30
2018-07-13T11:00:56.631Z,3.92
2018-07-13T11:03:30.132Z,3.52
2018-07-13T11:06:03.612Z,3.50
2018-07-13T11:08:37.113Z,3.20
2018-07-13T11:11:10.690Z,3.30
2018-07-13T11:13:44.329Z,2.98
2018-07-13T11:16:17.859Z,3.55
2018-07-13T11:18:51.398Z,3.17
2018-07-13T11:21:24.928Z,3.37
2018-07-13T11:23:58.458Z,3.80
2018-07-13T11:26:31.971Z,3.58
2018-07-13T11:29:05.542Z,3.40
2018-07-13T11:31:39.741Z,3.80
2018-07-13T11:34:15.651Z,3.60
2018-07-13T11:36:50.346Z,3.70
2018-07-13T11:39:23.926Z,3.45
2018-07-13T11:41:57.454Z,3.37
2018-07-13T11:44:31.008Z,3.25
2018-07-13T11:47:04.524Z,3.30
2018-07-13T11:49:38.099Z,2.98
2018-07-13T11:52:11.631Z,3.10
2018-07-13T11:54:45.174Z,2.72
2018-07-13T11:57:18.669Z,3.22
2018-07-13T11:59:52.260Z,2.90
2018-07-13T12:02:25.901Z,3.60
2018-07-13T12:04:59.681Z,3.17
2018-07-13T12:07:33.354Z,3.90
2018-07-13T12:10:06.934Z,3.70
2018-07-13T12:12:40.534Z,3.98
2018-07-13T12:15:14.057Z,3.33
2018-07-13T12:17:47.661Z,2.92
2018-07-13T12:20:21.115Z,3.55
2018-07-13T12:22:54.708Z,3.37
2018-07-13T12:25:28.256Z,3.20
2018-07-13T12:28:01.936Z,3.33
2018-07-13T12:30:35.443Z,3.30
2018-07-13T12:33:08.994Z,2.95
2018-07-13T12:35:42.485Z,3.40
2018-07-13T12:38:16.074Z,3.17
2018-07-13T12:40:49.578Z,3.00
2018-07-13T12:43:23.188Z,3.47
2018-07-13T12:45:56.750Z,3.25
2018-07-13T12:48:30.231Z,2.80
2018-07-13T12:51:04.002Z,3.30
2018-07-13T12:53:37.526Z,2.90
2018-07-13T12:56:11.025Z,3.45
2018-07-13T12:58:44.620Z,3.60
2018-07-13T13:01:18.296Z,3.77
2018-07-13T13:03:51.806Z,3.85
2018-07-13T13:06:25.373Z,2.90
2018-07-13T13:08:58.840Z,2.70
2018-07-13T13:11:32.348Z,2.90
2018-07-13T13:14:05.901Z,2.83
2018-07-13T13:16:39.416Z,3.55
2018-07-13T13:19:12.960Z,2.40
2018-07-13T13:21:46.567Z,2.85
2018-07-13T13:24:19.986Z,3.22
2018-07-13T13:26:53.510Z,3.30
2018-07-13T13:29:27.027Z,2.80
2018-07-13T13:32:00.623Z,2.95
2018-07-13T13:34:34.153Z,2.90
2018-07-13T13:37:07.756Z,3.37
2018-07-13T13:39:41.270Z,3.27
2018-07-13T13:42:14.771Z,3.50
2018-07-13T13:44:48.267Z,4.10
2018-07-13T13:47:21.806Z,2.75
2018-07-13T13:49:55.681Z,3.60
2018-07-13T13:52:29.197Z,3.75
2018-07-13T13:55:02.713Z,2.80
2018-07-13T13:57:36.241Z,3.37
2018-07-13T14:00:09.899Z,3.22
2018-07-13T14:02:43.446Z,3.25
2018-07-13T14:05:17.111Z,2.77
2018-07-13T14:07:50.561Z,2.75
2018-07-13T14:10:24.084Z,3.62
2018-07-13T14:12:57.627Z,2.87
2018-07-13T14:15:31.174Z,3.45
2018-07-13T14:18:04.770Z,2.60
2018-07-13T14:20:38.404Z,2.90
2018-07-13T14:23:11.987Z,3.30
2018-07-13T14:25:45.522Z,3.50
2018-07-13T14:28:18.998Z,3.50
2018-07-13T14:30:52.165Z,3.60
2018-07-13T14:33:25.650Z,3.77
2018-07-13T14:35:59.133Z,3.83
2018-07-13T14:38:32.656Z,3.15
2018-07-13T14:41:06.294Z,3.00
2018-07-13T14:43:39.790Z,3.50
2018-07-13T14:46:13.339Z,2.58
2018-07-13T14:48:46.801Z,3.20
2018-07-13T14:51:20.313Z,3.62
2018-07-13T14:53:53.850Z,3.55
2018-07-13T14:56:27.437Z,3.77
2018-07-13T14:59:00.938Z,4.25
2018-07-13T15:01:34.532Z,3.15
2018-07-13T15:04:08.026Z,3.17
2018-07-13T15:06:41.532Z,2.60
2018-07-13T15:09:15.093Z,3.77
2018-07-13T15:11:48.586Z,3.80
2018-07-13T15:14:22.106Z,2.62
2018-07-13T15:16:55.670Z,3.65
2018-07-13T15:19:29.232Z,3.17
2018-07-13T15:22:02.748Z,3.08
2018-07-13T15:24:36.338Z,2.98
2018-07-13T15:27:10.126Z,2.72
2018-07-13T15:29:43.636Z,2.92
2018-07-13T15:32:17.169Z,2.90
2018-07-13T15:34:50.640Z,3.80
2018-07-13T15:37:24.221Z,2.75
2018-07-13T15:39:57.674Z,2.85
2018-07-13T15:42:31.147Z,3.08
2018-07-13T15:45:04.797Z,3.17
2018-07-13T15:47:38.335Z,3.33
2018-07-13T15:50:11.806Z,4.08
2018-07-13T15:52:45.321Z,2.60
2018-07-13T15:55:18.797Z,3.10
2018-07-13T15:57:52.314Z,3.15
2018-07-13T16:00:25.825Z,3.20
2018-07-13T16:02:59.375Z,3.58
2018-07-13T16:05:33.070Z,3.37
2018-07-13T16:08:06.660Z,2.95
2018-07-13T16:10:40.233Z,3.00
2018-07-13T16:13:13.719Z,3.50
2018-07-13T16:15:47.302Z,3.20
2018-07-13T16:18:20.903Z,2.77
2018-07-13T16:20:54.416Z,2.70
2018-07-13T16:23:27.963Z,3.08
2018-07-13T16:26:01.443Z,2.33
2018-07-13T16:28:35.020Z,2.50
2018-07-13T16:31:08.460Z,2.55
2018-07-13T16:33:42.125Z,3.05
2018-07-13T16:36:15.638Z,2.60
2018-07-13T16:38:49.212Z,3.27
2018-07-13T16:41:22.766Z,2.80
2018-07-13T16:43:56.251Z,2.47
2018-07-13T16:46:29.887Z,2.47
2018-07-13T16:49:09.753Z,2.95
2018-07-13T16:51:43.198Z,2.60
2018-07-13T16:54:16.855Z,4.42
2018-07-13T16:56:50.397Z,15.23
2018-07-13T16:59:23.894Z,10.23
2018-07-13T17:01:57.417Z,4.72
2018-07-13T17:04:30.913Z,4.72
2018-07-13T17:07:04.558Z,4.30
2018-07-13T17:09:38.108Z,5.72
2018-07-13T17:12:11.771Z,7.90
2018-07-13T17:14:45.334Z,16.27
2018-07-13T17:17:18.820Z,8.90
2018-07-13T17:19:52.411Z,4.00
2018-07-13T17:22:25.943Z,2.70
2018-07-13T17:24:59.493Z,3.58
2018-07-13T17:27:33.037Z,3.45
2018-07-13T17:30:08.309Z,3.02
2018-07-13T17:32:41.876Z,3.10
2018-07-13T17:35:15.454Z,2.70
2018-07-13T17:37:51.987Z,3.58
2018-07-13T17:40:25.522Z,2.50
2018-07-13T17:42:59.207Z,2.92
2018-07-13T17:45:32.674Z,2.90
2018-07-13T17:48:06.312Z,2.40
2018-07-13T17:50:39.901Z,3.12
2018-07-13T17:53:13.411Z,2.75
2018-07-13T17:55:46.897Z,2.60
2018-07-13T17:58:20.558Z,2.72
2018-07-13T18:00:54.275Z,2.20
2018-07-13T18:03:27.707Z,1.85
2018-07-13T18:06:01.263Z,2.52
2018-07-13T18:08:34.806Z,2.80
2018-07-13T18:11:08.304Z,7.33
2018-07-13T18:13:41.936Z,4.70
2018-07-13T18:16:15.473Z,6.33
2018-07-13T18:18:48.984Z,4.42
2018-07-13T18:21:22.503Z,4.03
2018-07-13T18:23:56.096Z,3.00
2018-07-13T18:26:29.661Z,3.15
2018-07-13T18:29:03.257Z,3.12
2018-07-13T18:31:36.794Z,2.80
2018-07-13T18:34:10.394Z,2.80
2018-07-13T18:36:43.951Z,2.70
2018-07-13T18:39:18.215Z,3.15
2018-07-13T18:41:51.692Z,2.70
2018-07-13T18:44:25.357Z,3.10
2018-07-13T18:46:58.892Z,2.95
2018-07-13T18:49:32.495Z,2.70
2018-07-13T18:52:06.489Z,2.45
2018-07-13T18:54:40.017Z,2.72
2018-07-13T18:57:13.584Z,3.10
2018-07-13T18:59:47.153Z,2.75
2018-07-13T19:02:20.715Z,3.35
2018-07-13T19:04:54.275Z,3.45
2018-07-13T19:07:28.005Z,2.75
2018-07-13T19:10:01.527Z,2.80
2018-07-13T19:12:34.791Z,2.90
2018-07-13T19:15:08.312Z,3.20
2018-07-13T19:17:41.886Z,3.00
2018-07-13T19:20:15.494Z,3.47
2018-07-13T19:22:49.299Z,3.50
2018-07-13T19:25:22.693Z,3.40
2018-07-13T19:27:56.258Z,3.58
2018-07-13T19:30:29.877Z,3.75
2018-07-13T19:33:03.393Z,3.22
2018-07-13T19:35:37.145Z,3.37
2018-07-13T19:38:10.799Z,3.65
2018-07-13T19:40:44.297Z,3.60
2018-07-13T19:43:17.921Z,3.42
2018-07-13T19:45:51.999Z,3.58
2018-07-13T19:48:26.314Z,3.50
2018-07-13T19:50:59.888Z,3.72
2018-07-13T19:53:38.549Z,3.70
2018-07-13T19:56:17.693Z,3.55
2018-07-13T20:17:41.135Z,3.47
2018-07-13T20:21:00.900Z,3.77
2018-07-13T20:23:36.840Z,3.95
2018-07-13T20:26:39.493Z,3.80
2018-07-13T20:34:03.953Z,4.10
2018-07-13T20:36:37.584Z,4.37
2018-07-13T20:39:11.189Z,4.55
2018-07-13T20:41:44.739Z,5.08
2018-07-13T20:44:18.281Z,4.85
2018-07-13T20:46:51.842Z,4.80
2018-07-13T20:49:26.223Z,5.00
2018-07-13T20:52:00.022Z,3.75
2018-07-13T20:54:33.630Z,4.50
2018-07-13T20:57:07.213Z,5.40
2018-07-13T20:59:40.778Z,4.55
2018-07-13T21:02:15.982Z,4.10
2018-07-13T21:04:49.550Z,4.22
2018-07-13T21:07:23.205Z,4.75
2018-07-13T21:09:56.908Z,5.00
2018-07-13T21:12:30.553Z,4.53
2018-07-13T21:15:03.839Z,5.70
2018-07-13T21:17:37.366Z,5.30
2018-07-13T21:20:11.035Z,6.42
2018-07-13T21:22:44.472Z,5.37
2018-07-13T21:25:18.106Z,5.85
2018-07-13T21:27:51.635Z,6.17
2018-07-13T21:30:24.804Z,6.50
2018-07-13T21:32:58.288Z,5.37
2018-07-13T21:35:31.799Z,6.25
2018-07-13T21:38:05.464Z,5.50
2018-07-13T21:40:38.953Z,5.75
2018-07-13T21:43:12.565Z,5.87
2018-07-13T21:45:46.113Z,4.53
2018-07-13T21:48:19.689Z,4.70
2018-07-13T21:50:53.299Z,4.30
2018-07-13T21:53:26.914Z,4.45
2018-07-13T21:56:01.532Z,5.58
2018-07-13T21:58:35.310Z,5.15
2018-07-13T22:01:08.952Z,4.78
2018-07-13T22:03:42.510Z,4.92
2018-07-13T22:06:16.025Z,5.28
2018-07-13T22:08:49.536Z,4.90
2018-07-13T22:11:23.035Z,4.83
2018-07-13T22:13:56.553Z,5.22
2018-07-13T22:16:30.108Z,5.03
2018-07-13T22:19:03.687Z,5.80
2018-07-13T22:21:37.339Z,7.12
2018-07-13T22:24:11.002Z,5.15
2018-07-13T22:26:44.774Z,4.97
2018-07-13T22:29:18.605Z,5.85
2018-07-13T22:31:56.803Z,4.65
2018-07-13T22:34:30.933Z,6.33
2018-07-13T22:37:04.472Z,5.55
2018-07-13T22:39:37.992Z,5.50
2018-07-13T22:45:28.698Z,5.47
2018-07-13T22:48:02.320Z,6.17
2018-07-13T22:50:36.027Z,6.37
2018-07-13T22:53:47.572Z,5.30
2018-07-13T22:59:14.430Z,5.67
2018-07-13T23:01:47.966Z,5.62
2018-07-13T23:04:21.488Z,6.42
2018-07-13T23:06:55.116Z,5.58
2018-07-13T23:09:28.628Z,6.08
2018-07-13T23:12:02.164Z,5.90
2018-07-13T23:14:35.616Z,6.92
2018-07-13T23:17:09.521Z,6.10
2018-07-13T23:19:42.987Z,6.25
2018-07-13T23:22:16.552Z,6.55
2018-07-13T23:24:50.074Z,5.60
2018-07-13T23:27:23.603Z,6.80
2018-07-13T23:29:57.051Z,5.45
2018-07-13T23:32:30.536Z,6.97
2018-07-13T23:35:04.013Z,5.97
2018-07-13T23:37:37.550Z,6.60
2018-07-13T23:40:11.045Z,6.97
2018-07-13T23:42:44.571Z,7.22
2018-07-13T23:45:18.042Z,6.83
2018-07-13T23:47:51.568Z,7.03
2018-07-13T23:50:25.097Z,6.12
2018-07-13T23:52:58.586Z,7.08
2018-07-13T23:55:32.117Z,6.90
2018-07-13T23:58:05.570Z,6.30
